Time;durP1;ratioP1;P1;durP2;ratioP2;P2;SDS_P1;SDS_P2;PMS_P1;PMS_P2;Temp;Humidity;BMP_temperature;BMP_pressure;BME280_temperature;BME280_humidity;BME280_pressure;Samples;Min_cycle;Max_cycle;Signal;HPM_P1;HPM_P2
2022/06/15 00:01:02;;;;;;;25.73;2.80;;;;;;;;;;5092833;28;20063;-75
2022/06/15 00:03:30;;;;;;;7.00;1.30;;;;;;;;;;5092961;28;20032;-74
2022/06/15 00:06:14;;;;;;;8.33;1.57;;;;;;;;;;5092063;28;20497;-74
2022/06/15 00:08:42;;;;;;;4.27;1.30;;;;;;;;;;5092654;28;20020;-74
2022/06/15 00:11:10;;;;;;;3.67;1.20;;;;;;;;;;5087720;28;20047;-74
2022/06/15 00:13:37;;;;;;;5.43;1.37;;;;;;;;;;5087838;28;20023;-74
2022/06/15 00:16:05;;;;;;;3.73;1.40;;;;;;;;;;5087649;28;20024;-74
2022/06/15 00:18:31;;;;;;;3.07;1.27;;;;;;;;;;5087238;28;20032;-74
2022/06/15 00:20:59;;;;;;;4.07;1.90;;;;;;;;;;5091393;28;20024;-73
2022/06/15 00:23:26;;;;;;;5.10;1.37;;;;;;;;;;5092528;28;20050;-74
2022/06/15 00:25:53;;;;;;;9.10;2.40;;;;;;;;;;5092542;28;20036;-75
2022/06/15 00:28:20;;;;;;;5.17;1.73;;;;;;;;;;5092627;28;20028;-73
2022/06/15 00:30:50;;;;;;;1.90;1.07;;;;;;;;;;5092219;28;20103;-73
2022/06/15 00:33:19;;;;;;;5.73;1.67;;;;;;;;;;5087321;28;20059;-74
2022/06/15 00:35:57;;;;;;;3.23;1.57;;;;;;;;;;5069105;28;20424;-74
2022/06/15 00:38:28;;;;;;;4.67;1.77;;;;;;;;;;5087369;28;20027;-74
2022/06/15 00:40:55;;;;;;;4.70;1.90;;;;;;;;;;5087384;28;20024;-73
2022/06/15 00:43:29;;;;;;;5.23;2.20;;;;;;;;;;5091919;28;20027;-73
2022/06/15 00:45:55;;;;;;;5.57;2.40;;;;;;;;;;5092267;28;20028;-73
2022/06/15 00:48:22;;;;;;;6.40;2.67;;;;;;;;;;5092165;28;20039;-73
2022/06/15 00:50:50;;;;;;;4.57;2.50;;;;;;;;;;5092104;28;20028;-74
2022/06/15 00:53:17;;;;;;;6.03;2.50;;;;;;;;;;5091943;28;20085;-73
2022/06/15 00:55:44;;;;;;;7.40;2.70;;;;;;;;;;5087355;28;20028;-73
2022/06/15 00:58:13;;;;;;;4.43;2.10;;;;;;;;;;5087329;28;20400;-73
2022/06/15 01:00:40;;;;;;;3.40;1.33;;;;;;;;;;5087035;28;20107;-73
2022/06/15 01:03:07;;;;;;;5.03;1.80;;;;;;;;;;5086755;28;20024;-73
2022/06/15 01:05:46;;;;;;;2.30;1.40;;;;;;;;;;5091081;28;20437;-73
2022/06/15 01:08:13;;;;;;;2.70;1.30;;;;;;;;;;5074252;28;20383;-73
2022/06/15 01:10:58;;;;;;;2.23;1.33;;;;;;;;;;5092085;28;20021;-73
2022/06/15 01:13:28;;;;;;;6.43;1.40;;;;;;;;;;5091794;28;20103;-73
2022/06/15 01:16:02;;;;;;;3.53;1.40;;;;;;;;;;5091708;28;20039;-74
2022/06/15 01:18:29;;;;;;;3.08;1.00;;;;;;;;;;5087164;28;20029;-73
2022/06/15 01:20:58;;;;;;;3.27;1.33;;;;;;;;;;5086929;28;20028;-73
2022/06/15 01:23:26;;;;;;;3.13;1.40;;;;;;;;;;5087067;28;20025;-73
2022/06/15 01:26:11;;;;;;;2.50;1.43;;;;;;;;;;5086459;28;20032;-73
2022/06/15 01:28:47;;;;;;;2.38;1.30;;;;;;;;;;5091865;28;20403;-73
2022/06/15 01:31:36;;;;;;;2.47;1.53;;;;;;;;;;5092121;28;20135;-73
2022/06/15 01:34:06;;;;;;;3.80;1.53;;;;;;;;;;5095432;28;20035;-73
2022/06/15 01:36:47;;;;;;;5.20;2.00;;;;;;;;;;5095779;28;20070;-73
2022/06/15 01:39:18;;;;;;;3.63;1.93;;;;;;;;;;5093278;28;20043;-74
2022/06/15 01:41:49;;;;;;;4.17;2.47;;;;;;;;;;5090512;28;20028;-74
2022/06/15 01:44:17;;;;;;;8.73;3.37;;;;;;;;;;5090704;28;20502;-73
2022/06/15 01:46:45;;;;;;;4.03;1.97;;;;;;;;;;5090540;28;20368;-73
2022/06/15 01:49:15;;;;;;;3.20;1.93;;;;;;;;;;5092396;28;20600;-73
2022/06/15 01:51:44;;;;;;;2.80;2.00;;;;;;;;;;5095011;28;20016;-73
2022/06/15 01:54:19;;;;;;;3.07;1.93;;;;;;;;;;5095065;28;20097;-73
2022/06/15 01:56:47;;;;;;;5.70;2.73;;;;;;;;;;5095015;28;20035;-73
2022/06/15 01:59:27;;;;;;;4.33;2.00;;;;;;;;;;5094764;28;20020;-74
2022/06/15 02:01:59;;;;;;;4.07;1.80;;;;;;;;;;5092441;28;20031;-73
2022/06/15 02:04:34;;;;;;;3.53;1.97;;;;;;;;;;5090123;28;20432;-77
2022/06/15 02:07:22;;;;;;;2.72;1.75;;;;;;;;;;5090136;28;20031;-74
2022/06/15 02:09:49;;;;;;;3.23;1.40;;;;;;;;;;5089943;28;20111;-73
2022/06/15 02:12:19;;;;;;;2.50;1.43;;;;;;;;;;5093254;28;20059;-74
2022/06/15 02:14:47;;;;;;;4.87;1.87;;;;;;;;;;5094879;28;20019;-77
2022/06/15 02:17:37;;;;;;;3.73;1.70;;;;;;;;;;5094757;28;20483;-75
2022/06/15 02:20:07;;;;;;;2.70;1.43;;;;;;;;;;5089412;28;20081;-74
2022/06/15 02:22:36;;;;;;;3.33;1.50;;;;;;;;;;5094959;28;20024;-75
2022/06/15 02:25:07;;;;;;;3.27;1.43;;;;;;;;;;5089968;28;20449;-75
2022/06/15 02:27:34;;;;;;;5.30;1.30;;;;;;;;;;5089755;28;20032;-75
2022/06/15 02:30:05;;;;;;;3.03;1.50;;;;;;;;;;5089495;28;20046;-74
2022/06/15 02:32:32;;;;;;;6.50;1.53;;;;;;;;;;5089605;28;20539;-73
2022/06/15 02:34:59;;;;;;;4.63;1.67;;;;;;;;;;5093299;28;20048;-73
2022/06/15 02:37:26;;;;;;;2.20;1.20;;;;;;;;;;5094740;28;20021;-73
2022/06/15 02:39:52;;;;;;;3.00;1.50;;;;;;;;;;5094668;28;20023;-74
2022/06/15 02:42:22;;;;;;;4.20;1.50;;;;;;;;;;5094599;28;20058;-73
2022/06/15 02:44:49;;;;;;;4.63;1.40;;;;;;;;;;5093242;28;20032;-72
2022/06/15 02:47:17;;;;;;;3.97;1.60;;;;;;;;;;5089847;28;20059;-75
2022/06/15 02:49:46;;;;;;;4.50;1.40;;;;;;;;;;5089552;28;20453;-75
2022/06/15 02:52:13;;;;;;;4.30;1.40;;;;;;;;;;5089374;28;20024;-73
2022/06/15 02:54:42;;;;;;;2.63;1.50;;;;;;;;;;5089350;28;20024;-75
2022/06/15 02:57:09;;;;;;;2.47;1.30;;;;;;;;;;5092585;28;20032;-75
2022/06/15 02:59:36;;;;;;;5.27;1.40;;;;;;;;;;5094226;28;20027;-72
2022/06/15 03:02:02;;;;;;;4.80;1.70;;;;;;;;;;5093727;28;20016;-72
2022/06/15 03:04:29;;;;;;;2.30;1.37;;;;;;;;;;5094254;28;20033;-74
2022/06/15 03:06:56;;;;;;;3.37;1.23;;;;;;;;;;5094044;28;20054;-74
2022/06/15 03:09:24;;;;;;;2.87;1.40;;;;;;;;;;5090338;28;20043;-75
2022/06/15 03:11:51;;;;;;;4.03;1.90;;;;;;;;;;5089021;28;20024;-76
2022/06/15 03:14:18;;;;;;;3.77;1.70;;;;;;;;;;5082553;28;20021;-75
2022/06/15 03:16:48;;;;;;;4.87;1.70;;;;;;;;;;5068896;28;20049;-75
2022/06/15 03:19:15;;;;;;;2.80;1.40;;;;;;;;;;5070855;28;20020;-71
2022/06/15 03:21:42;;;;;;;2.93;1.40;;;;;;;;;;5073547;28;20020;-74
2022/06/15 03:24:08;;;;;;;4.73;1.60;;;;;;;;;;5073568;28;20099;-74
2022/06/15 03:26:35;;;;;;;5.57;1.93;;;;;;;;;;5088855;28;20031;-74
2022/06/15 03:29:02;;;;;;;3.47;1.67;;;;;;;;;;5093615;28;20104;-74
2022/06/15 03:31:29;;;;;;;2.80;1.60;;;;;;;;;;5090325;28;20020;-74
2022/06/15 03:33:56;;;;;;;4.13;1.60;;;;;;;;;;5083224;28;20028;-71
2022/06/15 03:36:22;;;;;;;5.17;1.80;;;;;;;;;;5083127;28;20145;-72
2022/06/15 03:38:56;;;;;;;5.10;1.80;;;;;;;;;;5088496;28;20024;-70
2022/06/15 03:41:36;;;;;;;3.40;1.60;;;;;;;;;;5090665;28;20027;-73
2022/06/15 03:44:10;;;;;;;6.07;1.73;;;;;;;;;;5093077;28;20020;-75
2022/06/15 03:46:41;;;;;;;7.33;1.50;;;;;;;;;;5092431;28;20102;-75
2022/06/15 03:49:15;;;;;;;2.73;1.40;;;;;;;;;;5093570;28;20024;-70
2022/06/15 03:51:45;;;;;;;3.85;1.60;;;;;;;;;;5093516;28;20424;-69
2022/06/15 03:54:15;;;;;;;1.90;1.20;;;;;;;;;;5089705;28;20421;-69
2022/06/15 03:56:49;;;;;;;2.27;1.30;;;;;;;;;;5088230;28;20020;-74
2022/06/15 03:59:18;;;;;;;2.23;1.27;;;;;;;;;;5088095;28;20055;-73
2022/06/15 04:01:49;;;;;;;2.93;1.60;;;;;;;;;;5087445;28;20020;-72
2022/06/15 04:04:20;;;;;;;2.43;1.37;;;;;;;;;;5091343;28;20387;-69
2022/06/15 04:06:49;;;;;;;2.57;1.27;;;;;;;;;;5092840;28;20055;-70
2022/06/15 04:09:21;;;;;;;1.87;1.30;;;;;;;;;;5078480;28;20024;-73
2022/06/15 04:14:50;;;;;;;2.27;1.20;;;;;;;;;;4971867;28;20062;-70
2022/06/15 04:17:18;;;;;;;2.33;1.37;;;;;;;;;;5046820;28;20047;-70
2022/06/15 04:20:31;;;;;;;2.00;1.00;;;;;;;;;;5073627;28;20463;-69
2022/06/15 04:22:34;;;;;;;3.00;1.80;;;;;;;;;;5070482;28;20035;-69
2022/06/15 04:25:10;;;;;;;2.20;1.13;;;;;;;;;;5087532;28;20028;-68
2022/06/15 04:27:37;;;;;;;2.40;1.43;;;;;;;;;;5092412;28;20047;-69
2022/06/15 04:30:04;;;;;;;5.63;1.50;;;;;;;;;;5092144;28;20026;-70
2022/06/15 04:32:30;;;;;;;1.93;1.10;;;;;;;;;;5092651;28;20027;-74
2022/06/15 04:34:57;;;;;;;2.00;1.20;;;;;;;;;;5092383;28;20035;-71
2022/06/15 04:37:24;;;;;;;2.13;1.30;;;;;;;;;;5091914;28;20439;-71
2022/06/15 04:39:50;;;;;;;3.73;1.30;;;;;;;;;;5087666;28;20028;-72
2022/06/15 04:42:23;;;;;;;4.37;1.30;;;;;;;;;;5081965;28;20115;-73
2022/06/15 04:44:51;;;;;;;3.77;1.23;;;;;;;;;;5067131;28;20036;-73
2022/06/15 04:47:18;;;;;;;2.20;1.30;;;;;;;;;;5067275;28;20451;-74
2022/06/15 04:49:44;;;;;;;4.53;1.47;;;;;;;;;;5072155;28;20565;-75
2022/06/15 04:52:11;;;;;;;1.90;1.20;;;;;;;;;;5072332;28;20418;-74
2022/06/15 04:54:38;;;;;;;3.43;1.30;;;;;;;;;;5072387;28;20472;-72
2022/06/15 04:57:05;;;;;;;2.10;1.27;;;;;;;;;;5086478;28;20020;-72
2022/06/15 04:59:31;;;;;;;2.83;1.50;;;;;;;;;;5092399;28;20059;-72
2022/06/15 05:01:58;;;;;;;3.33;1.50;;;;;;;;;;5087611;28;20356;-72
2022/06/15 05:04:28;;;;;;;1.60;1.17;;;;;;;;;;5086549;28;20043;-67
2022/06/15 05:06:55;;;;;;;2.43;1.50;;;;;;;;;;5088914;28;20035;-68
2022/06/15 05:09:22;;;;;;;4.50;1.47;;;;;;;;;;5091373;28;20088;-68
2022/06/15 05:11:48;;;;;;;7.27;1.57;;;;;;;;;;5095819;28;20020;-70
2022/06/15 05:14:15;;;;;;;4.13;1.80;;;;;;;;;;5096400;28;20028;-70
2022/06/15 05:16:42;;;;;;;2.77;1.63;;;;;;;;;;5096240;28;20482;-69
2022/06/15 05:19:08;;;;;;;3.47;1.60;;;;;;;;;;5095905;28;20487;-68
2022/06/15 05:21:46;;;;;;;2.33;1.60;;;;;;;;;;5096371;28;20031;-69
2022/06/15 05:24:13;;;;;;;2.50;1.47;;;;;;;;;;5090940;28;20035;-71
2022/06/15 05:26:40;;;;;;;4.27;1.80;;;;;;;;;;5091201;28;20478;-71
2022/06/15 05:29:06;;;;;;;3.00;1.60;;;;;;;;;;5091247;28;20482;-77
2022/06/15 05:31:33;;;;;;;3.00;1.80;;;;;;;;;;5073074;28;20389;-77
2022/06/15 05:34:00;;;;;;;3.20;1.33;;;;;;;;;;5095031;28;20012;-74
2022/06/15 05:36:28;;;;;;;2.17;1.17;;;;;;;;;;5093762;28;20143;-72
2022/06/15 05:38:55;;;;;;;2.53;1.27;;;;;;;;;;5095890;28;20360;-71
2022/06/15 05:41:22;;;;;;;1.97;1.33;;;;;;;;;;5095928;28;20027;-71
2022/06/15 05:43:51;;;;;;;2.53;1.30;;;;;;;;;;5095455;28;20020;-71
2022/06/15 05:46:27;;;;;;;2.13;1.40;;;;;;;;;;5091079;28;20036;-71
2022/06/15 05:48:58;;;;;;;3.97;1.67;;;;;;;;;;5090044;28;20028;-71
2022/06/15 05:51:25;;;;;;;2.80;1.43;;;;;;;;;;5090231;28;20024;-71
2022/06/15 05:53:52;;;;;;;2.80;1.60;;;;;;;;;;5090192;28;20415;-71
2022/06/15 05:56:18;;;;;;;8.17;1.67;;;;;;;;;;5094680;28;20089;-71
2022/06/15 05:58:45;;;;;;;2.07;1.10;;;;;;;;;;5095327;28;20069;-71
2022/06/15 06:01:16;;;;;;;2.90;1.10;;;;;;;;;;5095051;28;20032;-71
2022/06/15 06:03:43;;;;;;;2.63;1.20;;;;;;;;;;5095080;28;20056;-71
2022/06/15 06:06:11;;;;;;;2.50;1.30;;;;;;;;;;5094972;28;20133;-71
2022/06/15 06:08:37;;;;;;;4.63;1.33;;;;;;;;;;5090376;28;20028;-71
2022/06/15 06:11:04;;;;;;;2.50;1.23;;;;;;;;;;5089883;28;20081;-71
2022/06/15 06:13:31;;;;;;;1.60;1.17;;;;;;;;;;5089874;28;20576;-71
2022/06/15 06:15:57;;;;;;;6.23;1.50;;;;;;;;;;5089883;28;20024;-71
2022/06/15 06:18:24;;;;;;;2.03;1.27;;;;;;;;;;5092102;28;20031;-71
2022/06/15 06:20:51;;;;;;;1.23;0.77;;;;;;;;;;5094842;28;20035;-71
2022/06/15 06:23:18;;;;;;;2.87;1.00;;;;;;;;;;5094967;28;20023;-72
2022/06/15 06:25:47;;;;;;;1.30;0.90;;;;;;;;;;5095066;28;20035;-71
2022/06/15 06:28:33;;;;;;;1.93;0.90;;;;;;;;;;5094892;28;20027;-71
2022/06/15 06:31:01;;;;;;;1.40;1.00;;;;;;;;;;5089013;28;20035;-72
2022/06/15 06:33:29;;;;;;;2.20;1.10;;;;;;;;;;5089466;28;20032;-71
2022/06/15 06:35:57;;;;;;;1.50;0.90;;;;;;;;;;5089435;28;20028;-71
2022/06/15 06:38:24;;;;;;;1.63;1.00;;;;;;;;;;5089298;28;20380;-71
2022/06/15 06:40:51;;;;;;;2.00;0.70;;;;;;;;;;5093620;28;20035;-70
2022/06/15 06:43:18;;;;;;;1.63;1.10;;;;;;;;;;5094684;28;20032;-71
2022/06/15 06:45:45;;;;;;;1.27;0.83;;;;;;;;;;5094355;28;20060;-71
2022/06/15 06:48:11;;;;;;;1.30;0.90;;;;;;;;;;5094635;28;20031;-70
2022/06/15 06:50:40;;;;;;;1.40;0.70;;;;;;;;;;5094504;28;20032;-71
2022/06/15 06:53:07;;;;;;;2.70;1.10;;;;;;;;;;5089547;28;20028;-71
2022/06/15 06:55:34;;;;;;;1.43;0.80;;;;;;;;;;5088897;28;20119;-71
2022/06/15 06:58:01;;;;;;;1.90;0.70;;;;;;;;;;5088968;28;20058;-71
2022/06/15 07:00:29;;;;;;;2.03;0.90;;;;;;;;;;5088940;28;20107;-71
2022/06/15 07:02:56;;;;;;;2.37;0.90;;;;;;;;;;5092347;28;20070;-71
2022/06/15 07:05:22;;;;;;;2.03;0.70;;;;;;;;;;5094204;28;20053;-71
2022/06/15 07:07:49;;;;;;;2.67;0.70;;;;;;;;;;5094300;28;20028;-72
2022/06/15 07:10:16;;;;;;;1.63;1.00;;;;;;;;;;5094061;28;20020;-71
2022/06/15 07:12:43;;;;;;;2.27;0.97;;;;;;;;;;5094183;28;20027;-71
2022/06/15 07:15:10;;;;;;;3.17;1.20;;;;;;;;;;5089473;28;20032;-71
2022/06/15 07:17:38;;;;;;;1.77;0.87;;;;;;;;;;5088700;28;20374;-71
2022/06/15 07:20:05;;;;;;;1.67;1.00;;;;;;;;;;5088475;28;20020;-71
2022/06/15 07:22:32;;;;;;;2.17;0.97;;;;;;;;;;5088277;28;20032;-71
2022/06/15 07:24:58;;;;;;;1.67;1.03;;;;;;;;;;5091756;28;20040;-71
2022/06/15 07:27:25;;;;;;;2.00;0.80;;;;;;;;;;5093603;28;20020;-70
2022/06/15 07:29:53;;;;;;;3.07;1.03;;;;;;;;;;5093411;28;20107;-71
2022/06/15 07:32:19;;;;;;;1.70;0.90;;;;;;;;;;5093601;28;20088;-71
2022/06/15 07:34:46;;;;;;;1.47;0.80;;;;;;;;;;5093205;28;20031;-71
2022/06/15 07:37:13;;;;;;;2.70;1.13;;;;;;;;;;5089984;28;20471;-71
2022/06/15 07:39:41;;;;;;;2.27;0.87;;;;;;;;;;5087929;28;20020;-72
2022/06/15 07:42:09;;;;;;;4.43;1.03;;;;;;;;;;5088009;28;20099;-71
2022/06/15 07:44:36;;;;;;;1.60;0.90;;;;;;;;;;5088105;28;20433;-71
2022/06/15 07:49:55;;;;;;;3.43;1.20;;;;;;;;;;5093492;28;20043;-71
2022/06/15 07:52:24;;;;;;;2.10;1.27;;;;;;;;;;5093223;28;20095;-72
2022/06/15 07:54:50;;;;;;;2.70;1.00;;;;;;;;;;5093330;28;20020;-71
2022/06/15 07:57:17;;;;;;;1.93;1.00;;;;;;;;;;5093240;28;20039;-71
2022/06/15 07:59:44;;;;;;;1.63;0.80;;;;;;;;;;5088425;28;20031;-71
2022/06/15 08:02:11;;;;;;;2.00;1.00;;;;;;;;;;5088012;28;20489;-71
2022/06/15 08:04:38;;;;;;;1.30;0.90;;;;;;;;;;5087345;28;20800;-71
2022/06/15 08:07:06;;;;;;;1.17;0.80;;;;;;;;;;5087965;28;20020;-70
2022/06/15 08:09:33;;;;;;;2.40;1.27;;;;;;;;;;5091172;28;20016;-71
2022/06/15 08:12:12;;;;;;;2.27;1.20;;;;;;;;;;5092989;28;20371;-71
2022/06/15 08:14:40;;;;;;;2.20;0.90;;;;;;;;;;5092040;28;20035;-70
2022/06/15 08:17:08;;;;;;;1.17;0.90;;;;;;;;;;5092901;28;20031;-70
2022/06/15 08:19:36;;;;;;;1.87;1.10;;;;;;;;;;5092829;28;20024;-70
2022/06/15 08:22:04;;;;;;;2.03;0.80;;;;;;;;;;5088526;28;20575;-70
2022/06/15 08:24:31;;;;;;;1.87;0.93;;;;;;;;;;5087231;28;20059;-70
2022/06/15 08:26:58;;;;;;;1.00;0.57;;;;;;;;;;5087656;28;20039;-70
2022/06/15 08:29:24;;;;;;;2.00;0.63;;;;;;;;;;5086873;28;20123;-70
2022/06/15 08:31:56;;;;;;;0.90;0.57;;;;;;;;;;5090086;28;20112;-71
2022/06/15 08:34:24;;;;;;;0.40;0.30;;;;;;;;;;5092629;28;20034;-70
2022/06/15 08:36:51;;;;;;;1.30;0.60;;;;;;;;;;5092621;28;20023;-70
2022/06/15 08:39:18;;;;;;;1.13;0.60;;;;;;;;;;5092376;28;20023;-70
2022/06/15 08:41:56;;;;;;;0.70;0.50;;;;;;;;;;5091764;28;20379;-70
2022/06/15 08:44:26;;;;;;;0.67;0.57;;;;;;;;;;5087783;28;20042;-70
2022/06/15 08:47:03;;;;;;;0.50;0.40;;;;;;;;;;5087116;28;20012;-70
2022/06/15 08:49:38;;;;;;;0.40;0.33;;;;;;;;;;5086968;28;20024;-70
2022/06/15 08:52:09;;;;;;;0.90;0.60;;;;;;;;;;5086806;28;20095;-70
2022/06/15 08:54:44;;;;;;;2.00;0.70;;;;;;;;;;5091460;28;20054;-70
2022/06/15 08:57:10;;;;;;;;;;;;;;;;;;5092801;28;20024;-70
2022/06/15 08:59:48;;;;;;;1.60;0.53;;;;;;;;;;5092326;28;19934;-70
2022/06/15 09:02:23;;;;;;;0.83;0.50;;;;;;;;;;5092372;28;20391;-71
2022/06/15 09:05:04;;;;;;;0.90;0.63;;;;;;;;;;5092036;28;20024;-70
2022/06/15 09:07:49;;;;;;;1.87;0.70;;;;;;;;;;5086829;28;20024;-70
2022/06/15 09:10:21;;;;;;;0.60;0.45;;;;;;;;;;5086641;28;20024;-70
2022/06/15 09:12:59;;;;;;;0.80;0.60;;;;;;;;;;5087050;28;20209;-70
2022/06/15 09:15:26;;;;;;;0.97;0.60;;;;;;;;;;5088096;28;20012;-70
2022/06/15 09:17:55;;;;;;;3.97;0.80;;;;;;;;;;5092244;28;20047;-70
2022/06/15 09:20:35;;;;;;;0.77;0.57;;;;;;;;;;5091722;28;20027;-70
2022/06/15 09:23:12;;;;;;;0.90;0.57;;;;;;;;;;5092253;28;20031;-70
2022/06/15 09:25:44;;;;;;;1.40;0.80;;;;;;;;;;5091761;28;20036;-70
2022/06/15 09:28:18;;;;;;;1.43;0.60;;;;;;;;;;5089297;28;20095;-70
2022/06/15 09:30:45;;;;;;;1.07;0.50;;;;;;;;;;5086688;28;20031;-70
2022/06/15 09:33:15;;;;;;;1.73;0.90;;;;;;;;;;5086525;28;20039;-70
2022/06/15 09:35:47;;;;;;;2.20;1.00;;;;;;;;;;5086561;28;20016;-70
2022/06/15 09:38:14;;;;;;;4.30;0.90;;;;;;;;;;5089461;28;20023;-70
2022/06/15 09:40:47;;;;;;;1.60;0.60;;;;;;;;;;5091854;28;20028;-70
2022/06/15 09:43:20;;;;;;;1.33;0.57;;;;;;;;;;5091748;28;20016;-70
2022/06/15 09:45:59;;;;;;;1.47;0.67;;;;;;;;;;5091834;28;20031;-71
2022/06/15 09:48:38;;;;;;;0.80;0.60;;;;;;;;;;5071666;28;20031;-70
2022/06/15 09:51:08;;;;;;;1.00;0.63;;;;;;;;;;5067598;28;20033;-70
2022/06/15 09:53:49;;;;;;;2.70;0.67;;;;;;;;;;5068307;28;20490;-70
2022/06/15 09:56:18;;;;;;;1.37;0.80;;;;;;;;;;5069942;28;20422;-70
2022/06/15 09:58:50;;;;;;;1.13;0.60;;;;;;;;;;5069948;28;20020;-70
2022/06/15 10:01:17;;;;;;;1.07;0.70;;;;;;;;;;5074105;28;20468;-70
2022/06/15 10:03:46;;;;;;;1.23;0.70;;;;;;;;;;5074965;28;20024;-70
2022/06/15 10:06:18;;;;;;;0.67;0.47;;;;;;;;;;5075089;28;20112;-70
2022/06/15 10:08:46;;;;;;;1.00;0.63;;;;;;;;;;5075031;28;20028;-70
2022/06/15 10:11:23;;;;;;;0.90;0.60;;;;;;;;;;5090198;28;20119;-70
2022/06/15 10:13:50;;;;;;;1.20;0.70;;;;;;;;;;5089962;28;20077;-70
2022/06/15 10:16:23;;;;;;;2.50;0.80;;;;;;;;;;5089363;28;20521;-70
2022/06/15 10:18:59;;;;;;;2.33;0.77;;;;;;;;;;5089800;28;20028;-70
2022/06/15 10:21:29;;;;;;;1.60;0.93;;;;;;;;;;5089723;28;20099;-70
2022/06/15 10:23:59;;;;;;;3.77;1.00;;;;;;;;;;5094885;28;20384;-70
2022/06/15 10:26:42;;;;;;;3.70;0.73;;;;;;;;;;5094876;28;20027;-70
2022/06/15 10:29:15;;;;;;;2.97;1.23;;;;;;;;;;5094937;28;20024;-70
2022/06/15 10:32:02;;;;;;;1.83;0.80;;;;;;;;;;5094873;28;20031;-70
2022/06/15 10:34:30;;;;;;;1.20;0.70;;;;;;;;;;5091914;28;20047;-70
2022/06/15 10:36:59;;;;;;;1.90;0.77;;;;;;;;;;5089313;28;20031;-70
2022/06/15 10:39:27;;;;;;;3.80;1.13;;;;;;;;;;5089646;28;20016;-70
2022/06/15 10:41:58;;;;;;;2.63;0.90;;;;;;;;;;5089362;28;20546;-70
2022/06/15 10:44:27;;;;;;;2.53;1.20;;;;;;;;;;5090209;28;20126;-70
2022/06/15 10:46:57;;;;;;;1.60;0.97;;;;;;;;;;5094141;28;20020;-70
2022/06/15 10:49:25;;;;;;;3.93;0.90;;;;;;;;;;5094666;28;20483;-70
2022/06/15 10:51:52;;;;;;;4.43;1.30;;;;;;;;;;5094246;28;20027;-70
2022/06/15 11:02:06;;;;;;;2.33;1.13;;;;;;;;;;5094486;28;20058;-70
2022/06/15 11:03:15;;;;;;;1.00;0.80;;;;;;;;;;5088473;28;20031;-70
2022/06/15 11:05:44;;;;;;;2.90;1.10;;;;;;;;;;5087911;28;20032;-70
2022/06/15 11:08:24;;;;;;;2.93;1.30;;;;;;;;;;5093379;28;20027;-70
2022/06/15 11:10:52;;;;;;;2.50;1.00;;;;;;;;;;5093837;28;20100;-70
2022/06/15 11:13:34;;;;;;;3.13;0.90;;;;;;;;;;5094027;28;20020;-70
2022/06/15 11:19:06;;;;;;;3.30;1.20;;;;;;;;;;5092463;28;20074;-70
2022/06/15 11:21:37;;;;;;;3.47;1.03;;;;;;;;;;5088696;28;20016;-70
2022/06/15 11:24:11;;;;;;;2.17;1.10;;;;;;;;;;5088843;28;20422;-70
2022/06/15 11:26:57;;;;;;;1.58;1.00;;;;;;;;;;5088458;28;20059;-70
2022/06/15 11:29:23;;;;;;;;;;;;;;;;;;5090957;28;20089;-70
2022/06/15 11:31:50;;;;;;;1.23;0.70;;;;;;;;;;5093873;28;19908;-70
2022/06/15 11:34:20;;;;;;;2.37;1.23;;;;;;;;;;5093697;28;20035;-69
2022/06/15 11:36:53;;;;;;;6.03;1.33;;;;;;;;;;5093700;28;20089;-70
2022/06/15 11:39:37;;;;;;;4.37;0.97;;;;;;;;;;5093451;28;20425;-70
2022/06/15 11:42:18;;;;;;;1.23;0.90;;;;;;;;;;5089415;28;20040;-70
2022/06/15 11:44:45;;;;;;;4.13;1.30;;;;;;;;;;5088004;28;20036;-70
2022/06/15 11:47:14;;;;;;;3.17;1.53;;;;;;;;;;5087636;28;20020;-70
2022/06/15 11:49:53;;;;;;;3.63;1.73;;;;;;;;;;5088029;28;20020;-70
2022/06/15 11:52:24;;;;;;;3.90;1.93;;;;;;;;;;5091760;28;20020;-70
2022/06/15 11:55:08;;;;;;;2.50;1.50;;;;;;;;;;5093232;28;20035;-70
2022/06/15 11:57:45;;;;;;;1.90;1.20;;;;;;;;;;5093135;28;20020;-70
2022/06/15 12:00:51;;;;;;;2.57;1.33;;;;;;;;;;5093049;28;20024;-70
2022/06/15 12:03:28;;;;;;;1.73;1.05;;;;;;;;;;5029519;28;20022;-71
2022/06/15 12:06:07;;;;;;;3.00;1.27;;;;;;;;;;5024981;28;20053;-70
2022/06/15 12:08:36;;;;;;;1.83;1.10;;;;;;;;;;5065432;28;20052;-70
2022/06/15 12:12:37;;;;;;;2.40;1.13;;;;;;;;;;5087495;28;20016;-70
2022/06/15 12:14:00;;;;;;;2.03;1.27;;;;;;;;;;5089578;28;20118;-70
2022/06/15 12:16:30;;;;;;;1.93;1.13;;;;;;;;;;5092701;28;20488;-70
2022/06/15 12:19:04;;;;;;;3.60;1.50;;;;;;;;;;5092596;28;20031;-70
2022/06/15 12:21:34;;;;;;;1.60;1.20;;;;;;;;;;5092873;28;20016;-70
2022/06/15 12:24:09;;;;;;;2.67;1.20;;;;;;;;;;5092844;28;20024;-70
2022/06/15 12:27:01;;;;;;;2.37;1.50;;;;;;;;;;5089378;28;20352;-70
2022/06/15 12:29:48;;;;;;;2.57;1.50;;;;;;;;;;5087387;28;20020;-70
2022/06/15 12:32:32;;;;;;;2.63;1.30;;;;;;;;;;5087226;28;20075;-70
2022/06/15 12:35:17;;;;;;;2.73;1.57;;;;;;;;;;5086553;28;20107;-70
2022/06/15 12:37:51;;;;;;;3.00;1.27;;;;;;;;;;5092702;28;20047;-70
2022/06/15 12:40:30;;;;;;;5.22;1.40;;;;;;;;;;5092563;28;20190;-70
2022/06/15 12:43:15;;;;;;;4.03;1.60;;;;;;;;;;5092063;28;20524;-69
2022/06/15 12:45:48;;;;;;;5.45;1.90;;;;;;;;;;5092483;28;20066;-70
2022/06/15 12:48:29;;;;;;;2.97;2.03;;;;;;;;;;5090502;28;20475;-70
2022/06/15 12:51:16;;;;;;;2.67;1.73;;;;;;;;;;5086849;28;20037;-70
2022/06/15 12:53:59;;;;;;;5.00;1.60;;;;;;;;;;5055623;28;20036;-70
2022/06/15 12:56:37;;;;;;;3.77;1.57;;;;;;;;;;5086523;28;20031;-70
2022/06/15 12:59:07;;;;;;;2.60;1.57;;;;;;;;;;5090436;28;20390;-70
2022/06/15 13:01:40;;;;;;;3.73;1.90;;;;;;;;;;5092450;28;20034;-69
2022/06/15 13:04:13;;;;;;;5.33;2.50;;;;;;;;;;5092251;28;20028;-70
2022/06/15 13:06:41;;;;;;;3.63;2.17;;;;;;;;;;5092213;28;20024;-70
2022/06/15 13:09:14;;;;;;;3.53;2.00;;;;;;;;;;5092030;28;20028;-70
2022/06/15 13:11:44;;;;;;;4.27;1.77;;;;;;;;;;5087530;28;20032;-70
2022/06/15 13:14:14;;;;;;;2.30;1.50;;;;;;;;;;5086962;28;20352;-70
2022/06/15 13:16:56;;;;;;;3.60;1.10;;;;;;;;;;5086721;28;20020;-70
2022/06/15 13:19:49;;;;;;;1.97;0.97;;;;;;;;;;5086751;28;20020;-70
2022/06/15 13:22:19;;;;;;;2.57;1.30;;;;;;;;;;5089614;28;20411;-70
2022/06/15 13:24:51;;;;;;;3.47;1.40;;;;;;;;;;5091350;28;20081;-70
2022/06/15 13:27:25;;;;;;;2.73;1.57;;;;;;;;;;5092182;28;20020;-70
2022/06/15 13:29:53;;;;;;;1.98;1.17;;;;;;;;;;5096353;28;20024;-69
2022/06/15 13:32:38;;;;;;;3.73;1.90;;;;;;;;;;5094737;28;20103;-70
2022/06/15 13:35:23;;;;;;;3.10;1.60;;;;;;;;;;5090719;28;20032;-71
2022/06/15 13:38:05;;;;;;;2.53;1.60;;;;;;;;;;5089976;28;20532;-72
2022/06/15 13:41:07;;;;;;;1.97;1.20;;;;;;;;;;5090626;28;20474;-71
2022/06/15 13:43:43;;;;;;;3.10;1.87;;;;;;;;;;4992308;28;20109;-70
2022/06/15 13:46:29;;;;;;;2.80;1.73;;;;;;;;;;5082035;28;20093;-71
2022/06/15 13:49:02;;;;;;;5.40;2.10;;;;;;;;;;5078762;28;20032;-71
2022/06/15 13:51:38;;;;;;;3.07;1.60;;;;;;;;;;5095728;28;20062;-70
2022/06/15 13:54:05;;;;;;;2.93;1.70;;;;;;;;;;5095570;28;20047;-71
2022/06/15 13:56:38;;;;;;;1.93;1.40;;;;;;;;;;5090211;28;20632;-71
2022/06/15 13:59:04;;;;;;;1.50;1.13;;;;;;;;;;5089786;28;20036;-71
2022/06/15 14:01:34;;;;;;;4.03;1.70;;;;;;;;;;5090147;28;20024;-71
2022/06/15 14:04:18;;;;;;;2.53;1.47;;;;;;;;;;5089876;28;20031;-71
2022/06/15 14:06:47;;;;;;;3.03;1.77;;;;;;;;;;5095319;28;20034;-70
2022/06/15 14:09:32;;;;;;;10.20;6.83;;;;;;;;;;5094978;28;20024;-70
2022/06/15 14:12:17;;;;;;;7.00;4.63;;;;;;;;;;5095530;28;20475;-70
2022/06/15 14:14:53;;;;;;;3.90;1.88;;;;;;;;;;5094786;28;20429;-70
2022/06/15 14:17:24;;;;;;;2.30;1.43;;;;;;;;;;5072552;28;20573;-71
2022/06/15 14:19:57;;;;;;;2.20;1.30;;;;;;;;;;5069569;28;20035;-71
2022/06/15 14:22:24;;;;;;;1.60;0.90;;;;;;;;;;5087173;28;20036;-71
2022/06/15 14:25:05;;;;;;;3.70;1.10;;;;;;;;;;5089677;28;20025;-70
2022/06/15 14:27:33;;;;;;;2.37;0.43;;;;;;;;;;5091729;28;20023;-70
2022/06/15 14:30:01;;;;;;;1.63;0.90;;;;;;;;;;5088726;28;20112;-70
2022/06/15 14:32:28;;;;;;;1.60;1.10;;;;;;;;;;5091525;28;20467;-70
2022/06/15 14:35:01;;;;;;;2.17;1.40;;;;;;;;;;5094702;28;20487;-71
2022/06/15 14:37:28;;;;;;;2.43;1.50;;;;;;;;;;5094651;28;20020;-70
2022/06/15 14:39:57;;;;;;;2.47;1.17;;;;;;;;;;5088950;28;20466;-67
2022/06/15 14:42:29;;;;;;;1.97;1.20;;;;;;;;;;5084977;28;20028;-71
2022/06/15 14:44:56;;;;;;;6.53;3.03;;;;;;;;;;5069997;28;20051;-69
2022/06/15 14:47:25;;;;;;;4.20;2.70;;;;;;;;;;5087258;28;20054;-69
2022/06/15 14:49:53;;;;;;;3.27;2.00;;;;;;;;;;5090039;28;20023;-69
2022/06/15 14:52:20;;;;;;;1.73;1.13;;;;;;;;;;5093794;28;20348;-70
2022/06/15 14:54:49;;;;;;;2.37;1.20;;;;;;;;;;5094366;28;20078;-69
2022/06/15 14:57:26;;;;;;;3.33;0.80;;;;;;;;;;5094645;28;20020;-70
2022/06/15 14:59:54;;;;;;;1.60;0.70;;;;;;;;;;5094315;28;20016;-69
2022/06/15 15:02:22;;;;;;;1.27;0.80;;;;;;;;;;5090423;28;20024;-69
2022/06/15 15:04:56;;;;;;;0.90;0.60;;;;;;;;;;5088380;28;20055;-70
2022/06/15 15:10:23;;;;;;;2.43;0.40;;;;;;;;;;5088652;28;20482;-69
2022/06/15 15:12:50;;;;;;;3.07;1.20;;;;;;;;;;5092190;28;20032;-70
2022/06/15 15:15:17;;;;;;;1.00;0.50;;;;;;;;;;5094020;28;20073;-69
2022/06/15 15:18:09;;;;;;;0.40;0.40;;;;;;;;;;5094106;28;20024;-69
2022/06/15 15:20:38;;;;;;;2.17;0.70;;;;;;;;;;5094048;28;20016;-69
2022/06/15 15:23:06;;;;;;;0.63;0.30;;;;;;;;;;5093303;28;20031;-69
2022/06/15 15:25:37;;;;;;;1.13;0.47;;;;;;;;;;5088426;28;20047;-69